Time;durP1;ratioP1;P1;durP2;ratioP2;P2;SDS_P1;SDS_P2;PMS_P1;PMS_P2;Temp;Humidity;BMP_temperature;BMP_pressure;BME280_temperature;BME280_humidity;BME280_pressure;Samples;Min_cycle;Max_cycle;Signal;HPM_P1;HPM_P2
2022/12/18 00:02:17;;;;;;;15.05;8.60;;;-2.10;99.90;;;;;;5073156;28;20040;-72
2022/12/18 00:04:43;;;;;;;18.55;10.48;;;;;;;;;;5066248;28;20012;-72
2022/12/18 00:07:09;;;;;;;13.18;9.05;;;-2.40;99.90;;;;;;5063201;28;20150;-71
2022/12/18 00:09:35;;;;;;;27.02;11.73;;;;;;;;;;5064941;28;20393;-72
2022/12/18 00:12:01;;;;;;;30.83;12.93;;;;;;;;;;5063872;28;20073;-72
2022/12/18 00:14:27;;;;;;;26.90;11.57;;;;;;;;;;5064379;28;20453;-71
2022/12/18 00:16:53;;;;;;;19.63;8.18;;;;;;;;;;5065179;28;20028;-72
2022/12/18 00:19:19;;;;;;;20.13;11.70;;;;;;;;;;5065743;28;20020;-72
2022/12/18 00:21:45;;;;;;;17.52;8.40;;;;;;;;;;5066276;28;20112;-72
2022/12/18 00:24:11;;;;;;;18.13;9.57;;;;;;;;;;5066234;28;20493;-71
2022/12/18 00:26:38;;;;;;;16.45;6.35;;;-2.50;99.90;;;;;;5077470;28;20443;-71
2022/12/18 00:29:14;;;;;;;22.77;9.32;;;-2.50;99.90;;;;;;5069024;28;20046;-72
2022/12/18 00:31:41;;;;;;;18.10;11.55;;;-2.50;99.90;;;;;;5078119;28;20099;-72
2022/12/18 00:34:07;;;;;;;17.52;11.25;;;;;;;;;;5061162;28;20086;-72
2022/12/18 00:36:34;;;;;;;23.30;7.70;;;-2.70;99.90;;;;;;5066369;28;20028;-72
2022/12/18 00:39:02;;;;;;;13.93;9.02;;;-2.60;99.90;;;;;;5055996;28;20027;-72
2022/12/18 00:44:15;;;;;;;16.80;8.20;;;-2.70;99.90;;;;;;5064544;28;20441;-71
2022/12/18 00:46:41;;;;;;;7.45;6.15;;;-2.80;99.90;;;;;;5069686;28;20095;-72
2022/12/18 00:49:07;;;;;;;12.02;8.45;;;-2.60;99.90;;;;;;5068241;28;20024;-71
2022/12/18 00:51:33;;;;;;;18.75;5.78;;;;;;;;;;5069920;28;20101;-71
2022/12/18 00:53:59;;;;;;;21.83;9.63;;;;;;;;;;5064709;28;20402;-71
2022/12/18 00:56:25;;;;;;;15.10;7.63;;;-2.70;99.90;;;;;;5072253;28;20024;-72
2022/12/18 00:58:51;;;;;;;17.30;7.03;;;;;;;;;;5076723;28;20031;-72
2022/12/18 01:01:17;;;;;;;23.83;8.98;;;-2.70;99.90;;;;;;5075052;28;20029;-72
2022/12/18 01:03:45;;;;;;;20.33;6.70;;;;;;;;;;5082544;28;20017;-72
2022/12/18 01:06:12;;;;;;;18.33;8.65;;;-2.70;99.90;;;;;;5078072;28;20244;-72
2022/12/18 01:08:38;;;;;;;;;;;-2.70;99.90;;;;;;5075738;28;20039;-72
2022/12/18 01:11:09;;;;;;;10.15;5.90;;;-3.40;99.90;;;;;;5071941;28;19908;-72
2022/12/18 01:13:35;;;;;;;28.85;8.07;;;-2.90;99.90;;;;;;5087744;28;20036;-71
2022/12/18 01:16:01;;;;;;;13.63;6.75;;;;;;;;;;5071085;28;20016;-72
2022/12/18 01:18:27;;;;;;;12.07;8.50;;;;;;;;;;5079267;28;20034;-71
2022/12/18 01:20:52;;;;;;;21.90;9.25;;;;;;;;;;5065642;28;20020;-71
2022/12/18 01:23:19;;;;;;;15.40;9.10;;;;;;;;;;5078033;28;20085;-71
2022/12/18 01:25:44;;;;;;;27.02;9.93;;;;;;;;;;5069586;28;20389;-71
2022/12/18 01:28:11;;;;;;;21.40;8.25;;;;;;;;;;5080878;28;20089;-71
2022/12/18 01:30:36;;;;;;;10.95;6.05;;;-2.50;99.90;;;;;;5074737;28;20066;-71
2022/12/18 01:33:04;;;;;;;25.33;7.10;;;-2.60;99.90;;;;;;5083210;28;20028;-72
2022/12/18 01:35:30;;;;;;;11.70;6.07;;;;;;;;;;5078377;28;20452;-71
2022/12/18 01:37:56;;;;;;;14.85;7.43;;;;;;;;;;5086079;28;20032;-72
2022/12/18 01:40:22;;;;;;;12.80;4.95;;;;;;;;;;5079482;28;20042;-72
2022/12/18 01:42:52;;;;;;;17.92;7.53;;;-2.80;99.90;;;;;;5068539;28;20045;-72
2022/12/18 01:45:18;;;;;;;14.85;7.07;;;;;;;;;;5080846;28;20549;-72
2022/12/18 01:47:53;;;;;;;13.45;7.05;;;-2.70;99.90;;;;;;5070668;28;20102;-71
2022/12/18 01:50:21;;;;;;;16.50;6.97;;;-2.70;99.90;;;;;;5081390;28;20033;-72
2022/12/18 01:52:49;;;;;;;14.40;9.07;;;-2.60;99.90;;;;;;5068179;28;20036;-72
2022/12/18 01:55:18;;;;;;;17.25;9.50;;;-2.60;99.90;;;;;;5058026;28;20056;-72
2022/12/18 01:57:44;;;;;;;21.58;6.45;;;;;;;;;;5073008;28;20185;-71
2022/12/18 02:00:14;;;;;;;12.02;6.45;;;-2.90;99.90;;;;;;5067701;28;20050;-72
2022/12/18 02:02:44;;;;;;;8.10;5.28;;;-3.30;99.90;;;;;;5067166;28;20024;-71
2022/12/18 02:05:12;;;;;;;10.63;5.55;;;-3.00;99.90;;;;;;5068481;28;20070;-72
2022/12/18 02:07:38;;;;;;;5.97;4.30;;;;;;;;;;5066440;28;20054;-71
2022/12/18 02:10:16;;;;;;;17.38;5.18;;;-3.00;99.90;;;;;;5068329;28;20100;-71
2022/12/18 02:12:53;;;;;;;10.65;4.90;;;-2.90;99.90;;;;;;5065476;28;20024;-71
2022/12/18 02:15:42;;;;;;;9.85;6.03;;;-2.80;99.90;;;;;;5068131;28;20035;-72
2022/12/18 02:18:13;;;;;;;6.95;6.00;;;-2.80;99.90;;;;;;5066467;28;20142;-71
2022/12/18 02:20:59;;;;;;;26.15;8.52;;;-2.90;99.90;;;;;;5068069;28;20036;-72
2022/12/18 02:23:56;;;;;;;10.45;5.22;;;-2.80;99.90;;;;;;5067551;28;20024;-72
2022/12/18 02:26:31;;;;;;;14.60;5.93;;;-2.70;99.90;;;;;;5065190;28;20013;-72
2022/12/18 02:29:04;;;;;;;11.48;8.68;;;-2.50;99.90;;;;;;5066200;28;20021;-72
2022/12/18 02:31:36;;;;;;;17.58;7.95;;;-2.40;99.90;;;;;;5065944;28;20031;-71
2022/12/18 02:34:06;;;;;;;19.42;8.45;;;-2.30;99.90;;;;;;5062569;28;20025;-71
2022/12/18 02:36:33;;;;;;;16.25;7.65;;;-2.40;99.90;;;;;;5062854;28;20082;-71
2022/12/18 02:39:00;;;;;;;21.83;9.88;;;-2.10;99.90;;;;;;5066729;28;20020;-72
2022/12/18 02:41:27;;;;;;;20.27;8.13;;;;;;;;;;5068397;28;20040;-71
2022/12/18 02:44:01;;;;;;;12.63;7.10;;;-2.00;99.90;;;;;;5061633;28;20040;-72
2022/12/18 02:46:27;;;;;;;12.20;5.53;;;;;;;;;;5085908;28;20028;-71
2022/12/18 02:48:57;;;;;;;20.95;8.70;;;-2.20;99.90;;;;;;5078207;28;20072;-72
2022/12/18 02:51:41;;;;;;;13.20;5.68;;;-1.80;99.90;;;;;;5083173;28;20453;-72
2022/12/18 02:54:38;;;;;;;17.52;7.93;;;-2.00;99.90;;;;;;5062430;28;20040;-72
2022/12/18 02:57:30;;;;;;;10.20;7.45;;;-2.00;99.90;;;;;;5057159;28;20016;-72
2022/12/18 03:00:02;;;;;;;21.05;7.75;;;-2.30;99.90;;;;;;5049920;28;20107;-72
2022/12/18 03:02:49;;;;;;;20.50;6.97;;;-2.10;99.90;;;;;;5065439;28;20012;-71
2022/12/18 03:05:20;;;;;;;10.32;6.30;;;-2.10;99.90;;;;;;5067370;28;20024;-71
2022/12/18 03:08:08;;;;;;;18.23;8.88;;;-2.20;99.90;;;;;;5065012;28;20047;-71
2022/12/18 03:10:40;;;;;;;17.85;6.68;;;-2.10;99.90;;;;;;5072397;28;20031;-72
2022/12/18 03:13:11;;;;;;;8.90;5.82;;;-2.00;99.90;;;;;;5080995;28;20029;-72
2022/12/18 03:15:42;;;;;;;12.88;7.10;;;-2.20;99.90;;;;;;5067876;28;20468;-72
2022/12/18 03:18:19;;;;;;;15.57;8.98;;;-2.10;99.90;;;;;;5082542;28;20025;-72
2022/12/18 03:20:47;;;;;;;14.70;7.82;;;-1.90;99.90;;;;;;5069223;28;20508;-71
2022/12/18 03:23:17;;;;;;;16.48;4.95;;;-1.90;99.90;;;;;;5079173;28;20358;-72
2022/12/18 03:25:44;;;;;;;14.85;5.72;;;-2.00;99.90;;;;;;5066020;28;20044;-71
2022/12/18 03:28:22;;;;;;;14.07;5.90;;;-1.90;99.90;;;;;;5082265;28;20032;-72
2022/12/18 03:30:52;;;;;;;17.10;7.60;;;-2.00;99.90;;;;;;5071218;28;20551;-71
2022/12/18 03:33:19;;;;;;;23.65;8.50;;;;;;;;;;5060569;28;20028;-72
2022/12/18 03:35:45;;;;;;;11.17;9.37;;;-1.80;99.90;;;;;;5075651;28;20021;-72
2022/12/18 03:38:11;;;;;;;10.55;5.05;;;;;;;;;;5086753;28;20024;-72
2022/12/18 03:40:48;;;;;;;17.92;7.70;;;-1.90;99.90;;;;;;5068253;28;20027;-72
2022/12/18 03:43:39;;;;;;;18.50;7.55;;;-1.90;99.90;;;;;;5077393;28;20059;-72
2022/12/18 03:46:40;;;;;;;19.35;8.73;;;-1.90;99.90;;;;;;5069218;28;20013;-72
2022/12/18 03:49:22;;;;;;;23.30;8.70;;;-1.90;99.90;;;;;;5079293;28;20078;-71
2022/12/18 03:52:02;;;;;;;17.20;9.20;;;-1.90;99.90;;;;;;5062279;28;20028;-71
2022/12/18 03:54:30;;;;;;;13.38;7.78;;;-1.80;99.90;;;;;;5054475;28;20416;-72
2022/12/18 03:57:17;;;;;;;;;;;-1.80;99.90;;;;;;5067651;28;20021;-71
2022/12/18 03:59:45;;;;;;;13.98;6.68;;;-2.00;99.90;;;;;;5078743;28;19908;-71
2022/12/18 04:02:11;;;;;;;13.25;7.80;;;;;;;;;;5076958;28;20013;-72
2022/12/18 04:04:39;;;;;;;20.65;4.80;;;-1.90;99.90;;;;;;5081127;28;20428;-71
2022/12/18 04:07:06;;;;;;;13.05;6.65;;;-2.00;99.90;;;;;;5081614;28;20020;-72
2022/12/18 04:09:33;;;;;;;11.27;6.90;;;-2.30;99.90;;;;;;5084308;28;20032;-72
2022/12/18 04:11:59;;;;;;;;;;;-2.00;99.90;;;;;;5068646;28;20041;-71
2022/12/18 04:14:24;;;;;;;9.23;6.65;;;-2.20;99.90;;;;;;5077514;28;20281;-72
2022/12/18 04:16:50;;;;;;;11.68;8.77;;;;;;;;;;5069534;28;20127;-72
2022/12/18 04:19:16;;;;;;;15.30;5.65;;;;;;;;;;5071075;28;20021;-72
2022/12/18 04:21:42;;;;;;;12.68;6.22;;;;;;;;;;5068901;28;20031;-71
2022/12/18 04:24:08;;;;;;;20.17;8.15;;;;;;;;;;5082157;28;20111;-71
2022/12/18 04:26:34;;;;;;;10.93;7.18;;;;;;;;;;5076099;28;20527;-71
2022/12/18 04:29:00;;;;;;;12.30;7.13;;;;;;;;;;5084895;28;20398;-71
2022/12/18 04:31:26;;;;;;;11.68;5.85;;;;;;;;;;5081726;28;20073;-72
2022/12/18 04:33:52;;;;;;;19.58;9.80;;;;;;;;;;5087768;28;20028;-72
2022/12/18 04:36:18;;;;;;;22.05;8.82;;;;;;;;;;5081543;28;20069;-72
2022/12/18 04:38:44;;;;;;;17.00;7.00;;;;;;;;;;5069772;28;20029;-72
2022/12/18 04:41:10;;;;;;;34.30;10.50;;;;;;;;;;5068960;28;20020;-72
2022/12/18 04:43:36;;;;;;;8.23;6.70;;;;;;;;;;5068484;28;20579;-72
2022/12/18 04:46:06;;;;;;;27.50;8.05;;;-1.90;99.90;;;;;;5082061;28;20032;-72
2022/12/18 04:48:33;;;;;;;11.38;5.40;;;-1.90;99.90;;;;;;5067625;28;20072;-72
2022/12/18 04:50:58;;;;;;;7.43;5.15;;;-2.00;99.90;;;;;;5084669;28;20099;-71
2022/12/18 04:53:24;;;;;;;14.85;6.47;;;;;;;;;;5072416;28;20450;-72
2022/12/18 04:55:50;;;;;;;12.35;6.18;;;;;;;;;;5085750;28;20485;-72
2022/12/18 04:58:16;;;;;;;14.05;6.15;;;;;;;;;;5076258;28;20088;-72
2022/12/18 05:00:42;;;;;;;10.98;6.13;;;;;;;;;;5086960;28;20095;-72
2022/12/18 05:03:08;;;;;;;13.32;6.15;;;;;;;;;;5071110;28;20183;-72
2022/12/18 05:05:37;;;;;;;17.42;9.45;;;-2.10;99.90;;;;;;5086797;28;20084;-71
2022/12/18 05:08:03;;;;;;;14.13;6.22;;;;;;;;;;5073190;28;20064;-72
2022/12/18 05:10:29;;;;;;;9.95;6.13;;;-2.30;99.90;;;;;;5074801;28;20073;-72
2022/12/18 05:12:57;;;;;;;11.80;7.05;;;;;;;;;;5069160;28;20021;-72
2022/12/18 05:15:33;;;;;;;26.55;9.27;;;-2.20;99.90;;;;;;5077025;28;20213;-72
2022/12/18 05:17:59;;;;;;;20.35;7.93;;;-2.40;99.90;;;;;;5071372;28;20054;-71
2022/12/18 05:20:25;;;;;;;19.83;8.88;;;-2.20;99.90;;;;;;5081850;28;20507;-72
2022/12/18 05:22:52;;;;;;;13.50;7.70;;;;;;;;;;5076818;28;20072;-71
2022/12/18 05:25:18;;;;;;;13.30;6.18;;;;;;;;;;5084306;28;20103;-71
2022/12/18 05:27:44;;;;;;;16.90;7.32;;;;;;;;;;5080388;28;20071;-71
2022/12/18 05:30:10;;;;;;;19.13;8.27;;;-2.20;99.90;;;;;;5076416;28;20401;-71
2022/12/18 05:32:36;;;;;;;15.90;8.27;;;;;;;;;;5083855;28;20037;-73
2022/12/18 05:35:02;;;;;;;11.45;4.45;;;;;;;;;;5071290;28;20020;-72
2022/12/18 05:37:28;;;;;;;19.75;9.05;;;;;;;;;;5082005;28;20035;-72
2022/12/18 05:39:54;;;;;;;7.50;5.85;;;;;;;;;;5063695;28;20024;-72
2022/12/18 05:42:20;;;;;;;7.35;5.93;;;;;;;;;;5081283;28;20509;-71
2022/12/18 05:44:47;;;;;;;15.45;6.50;;;;;;;;;;5063311;28;20027;-72
2022/12/18 05:47:12;;;;;;;13.45;5.35;;;-2.20;99.90;;;;;;5068898;28;20509;-71
2022/12/18 05:49:38;;;;;;;15.65;4.88;;;;;;;;;;5067252;28;20071;-72
2022/12/18 05:52:04;;;;;;;15.32;7.78;;;-2.30;99.90;;;;;;5082025;28;20023;-72
2022/12/18 05:54:30;;;;;;;17.58;5.18;;;-2.20;99.90;;;;;;5079582;28;20032;-71
2022/12/18 05:56:56;;;;;;;18.73;9.95;;;;;;;;;;5085209;28;20518;-72
2022/12/18 05:59:22;;;;;;;7.18;5.20;;;;;;;;;;5075478;28;20028;-71
2022/12/18 06:01:48;;;;;;;20.73;6.03;;;;;;;;;;5068695;28;20037;-72
2022/12/18 06:04:14;;;;;;;21.98;7.55;;;;;;;;;;5078577;28;20101;-72
2022/12/18 06:06:40;;;;;;;17.83;7.93;;;-2.40;99.90;;;;;;5070765;28;20020;-72
2022/12/18 06:09:09;;;;;;;16.90;9.07;;;;;;;;;;5078077;28;20099;-72
2022/12/18 06:11:36;;;;;;;20.50;9.93;;;-2.20;99.90;;;;;;5068539;28;20036;-72
2022/12/18 06:14:02;;;;;;;17.02;7.30;;;-2.20;99.90;;;;;;5081767;28;20033;-71
2022/12/18 06:16:28;;;;;;;19.13;6.20;;;;;;;;;;5072002;28;20016;-71
2022/12/18 06:18:58;;;;;;;13.75;6.55;;;-2.10;99.90;;;;;;5072907;28;20028;-72
2022/12/18 06:21:24;;;;;;;12.20;6.07;;;;;;;;;;5066165;28;20031;-72
2022/12/18 06:23:50;;;;;;;26.63;9.13;;;-1.90;99.90;;;;;;5087404;28;20017;-72
2022/12/18 06:26:16;;;;;;;13.25;6.70;;;;;;;;;;5069487;28;20031;-71
2022/12/18 06:28:42;;;;;;;21.40;7.00;;;-1.90;99.90;;;;;;5078520;28;20029;-71
2022/12/18 06:31:08;;;;;;;9.95;6.68;;;;;;;;;;5066594;28;20021;-72
2022/12/18 06:33:34;;;;;;;9.48;7.70;;;;;;;;;;5067395;28;20055;-71
2022/12/18 06:36:11;;;;;;;20.40;8.15;;;-2.10;99.90;;;;;;5059531;28;20025;-72
2022/12/18 06:38:40;;;;;;;25.20;8.05;;;-2.10;99.90;;;;;;5076492;28;20032;-71
2022/12/18 06:41:11;;;;;;;13.30;6.47;;;-2.10;99.90;;;;;;5070697;28;20409;-72
2022/12/18 06:43:37;;;;;;;14.02;6.60;;;;;;;;;;5065064;28;20094;-71
2022/12/18 06:46:04;;;;;;;18.67;5.28;;;-2.10;99.90;;;;;;5063698;28;20135;-72
2022/12/18 06:48:30;;;;;;;12.37;7.50;;;;;;;;;;5067268;28;20044;-71
2022/12/18 06:50:56;;;;;;;12.15;5.07;;;;;;;;;;5065993;28;20282;-71
2022/12/18 06:53:22;;;;;;;7.55;4.88;;;-2.30;99.90;;;;;;5067570;28;20056;-71
2022/12/18 06:55:48;;;;;;;22.15;6.63;;;;;;;;;;5074328;28;20643;-71
2022/12/18 06:58:14;;;;;;;21.88;8.48;;;;;;;;;;5061689;28;20033;-71
2022/12/18 07:00:40;;;;;;;19.83;7.63;;;;;;;;;;5076724;28;20047;-71
2022/12/18 07:03:06;;;;;;;12.70;6.15;;;;;;;;;;5062907;28;20028;-71
2022/12/18 07:05:32;;;;;;;11.52;7.25;;;;;;;;;;5080236;28;20472;-72
2022/12/18 07:07:58;;;;;;;16.95;7.70;;;-2.50;99.90;;;;;;5068865;28;20203;-71
2022/12/18 07:10:24;;;;;;;10.15;5.95;;;;;;;;;;5084635;28;20070;-71
2022/12/18 07:12:50;;;;;;;12.30;5.22;;;;;;;;;;5072514;28;20499;-71
2022/12/18 07:15:16;;;;;;;10.02;5.60;;;;;;;;;;5083528;28;20107;-71
2022/12/18 07:17:42;;;;;;;15.27;8.13;;;;;;;;;;5068250;28;20048;-71
2022/12/18 07:20:08;;;;;;;16.95;5.82;;;-2.20;99.90;;;;;;5085211;28;20330;-71
2022/12/18 07:22:34;;;;;;;13.48;8.80;;;;;;;;;;5073311;28;20028;-72
2022/12/18 07:25:00;;;;;;;13.30;5.70;;;;;;;;;;5072821;28;20016;-72
2022/12/18 07:27:26;;;;;;;20.80;6.15;;;;;;;;;;5066736;28;20111;-72
2022/12/18 07:29:52;;;;;;;11.18;6.20;;;;;;;;;;5074527;28;20027;-71
2022/12/18 07:32:18;;;;;;;16.60;5.68;;;;;;;;;;5071676;28;20024;-71
2022/12/18 07:34:44;;;;;;;21.35;9.13;;;;;;;;;;5077440;28;20085;-72
2022/12/18 07:37:10;;;;;;;18.48;7.60;;;;;;;;;;5075543;28;20375;-72
2022/12/18 07:39:36;;;;;;;25.73;8.07;;;;;;;;;;5078684;28;20059;-72
2022/12/18 07:44:47;;;;;;;14.75;5.45;;;;;;;;;;5065962;28;20046;-71
2022/12/18 07:47:13;;;;;;;9.35;5.68;;;;;;;;;;5064346;28;20028;-71
2022/12/18 07:49:39;;;;;;;10.30;5.00;;;;;;;;;;5066231;28;20086;-71
2022/12/18 07:52:05;;;;;;;13.05;6.55;;;;;;;;;;5078671;28;20521;-72
2022/12/18 07:54:31;;;;;;;11.40;6.13;;;;;;;;;;5069509;28;20040;-72
2022/12/18 07:56:57;;;;;;;17.17;5.25;;;;;;;;;;5083781;28;20024;-72
2022/12/18 07:59:22;;;;;;;14.20;7.43;;;-2.40;99.90;;;;;;5067000;28;20157;-71
2022/12/18 08:01:48;;;;;;;17.30;8.82;;;;;;;;;;5084153;28;20032;-72
2022/12/18 08:04:14;;;;;;;8.20;6.22;;;;;;;;;;5074528;28;20390;-72
2022/12/18 08:06:40;;;;;;;11.10;4.72;;;;;;;;;;5083686;28;20083;-72
2022/12/18 08:09:08;;;;;;;27.73;9.75;;;-2.60;99.90;;;;;;5079723;28;20032;-72
2022/12/18 08:11:34;;;;;;;18.67;5.75;;;;;;;;;;5086065;28;20040;-72
2022/12/18 08:14:00;;;;;;;12.38;5.47;;;;;;;;;;5077002;28;20114;-71
2022/12/18 08:16:26;;;;;;;12.18;6.25;;;;;;;;;;5084170;28;20028;-71
2022/12/18 08:18:53;;;;;;;27.77;8.48;;;-2.50;99.90;;;;;;5082203;28;20013;-72
2022/12/18 08:21:23;;;;;;;13.15;8.82;;;-3.00;99.90;;;;;;5070837;28;20032;-71
2022/12/18 08:23:50;;;;;;;30.08;8.55;;;-2.10;99.90;;;;;;5065158;28;20451;-71
2022/12/18 08:26:16;;;;;;;22.20;7.78;;;;;;;;;;5065346;28;20033;-72
2022/12/18 08:28:42;;;;;;;18.27;8.35;;;;;;;;;;5069635;28;20036;-72
2022/12/18 08:31:08;;;;;;;19.65;9.18;;;-1.50;99.90;;;;;;5073630;28;20042;-72
2022/12/18 08:33:35;;;;;;;22.75;10.35;;;-1.10;99.90;;;;;;5084558;28;20032;-72
2022/12/18 08:36:03;;;;;;;10.30;4.93;;;-0.80;99.90;;;;;;5078941;28;20115;-72
2022/12/18 08:38:29;;;;;;;11.23;4.78;;;;;;;;;;5088082;28;20039;-72
2022/12/18 08:41:03;;;;;;;21.77;8.20;;;-0.20;99.90;;;;;;5071189;28;20043;-71
2022/12/18 08:46:14;;;;;;;20.42;7.82;;;;;;;;;;5073012;28;20074;-72
2022/12/18 08:48:40;;;;;;;26.42;8.70;;;;;;;;;;5082249;28;20119;-71
2022/12/18 08:51:06;;;;;;;25.35;8.85;;;0.10;99.90;;;;;;5060658;28;20123;-72
2022/12/18 08:53:31;;;;;;;20.33;7.93;;;0.20;99.90;;;;;;5069646;28;20025;-71
2022/12/18 08:55:57;;;;;;;29.63;7.38;;;;;;;;;;5065453;28;20017;-72
2022/12/18 08:58:23;;;;;;;19.98;7.55;;;0.80;99.90;;;;;;5069919;28;20700;-72
2022/12/18 09:00:49;;;;;;;21.42;8.65;;;1.10;98.10;;;;;;5065811;28;20048;-72
2022/12/18 09:03:16;;;;;;;13.50;6.22;;;1.40;98.90;;;;;;5067246;28;20029;-72
2022/12/18 09:05:42;;;;;;;25.33;8.75;;;;;;;;;;5064993;28;20056;-72
2022/12/18 09:08:08;;;;;;;19.17;8.13;;;;;;;;;;5069355;28;20040;-72
2022/12/18 09:10:40;;;;;;;22.15;8.05;;;2.50;96.60;;;;;;5080519;28;20064;-73
2022/12/18 09:13:06;;;;;;;19.73;8.20;;;;;;;;;;5069863;28;20039;-72
2022/12/18 09:15:32;;;;;;;30.33;10.70;;;;;;;;;;5078879;28;20401;-72
2022/12/18 09:17:58;;;;;;;25.52;8.27;;;;;;;;;;5066698;28;20031;-72
2022/12/18 09:20:24;;;;;;;30.65;11.20;;;3.30;96.20;;;;;;5079661;28;20016;-72
2022/12/18 09:22:50;;;;;;;30.52;9.57;;;3.40;99.60;;;;;;5074781;28;20051;-72
2022/12/18 09:25:15;;;;;;;30.67;9.20;;;4.10;92.10;;;;;;5084899;28;20040;-72
2022/12/18 09:27:41;;;;;;;27.77;11.02;;;;;;;;;;5074002;28;20109;-72
2022/12/18 09:30:07;;;;;;;25.80;10.00;;;;;;;;;;5075931;28;20023;-72
2022/12/18 09:32:34;;;;;;;31.48;12.27;;;;;;;;;;5076013;28;20028;-72
2022/12/18 09:34:59;;;;;;;29.30;10.48;;;3.30;97.20;;;;;;5081709;28;20017;-72
2022/12/18 09:37:25;;;;;;;30.77;11.02;;;;;;;;;;5066377;28;20029;-72
2022/12/18 09:39:51;;;;;;;31.83;11.88;;;;;;;;;;5068810;28;20021;-72
2022/12/18 09:42:23;;;;;;;40.30;14.07;;;3.10;91.40;;;;;;5067632;28;20525;-72
2022/12/18 09:44:52;;;;;;;35.75;13.85;;;3.00;92.10;;;;;;5075371;28;20103;-72
2022/12/18 09:47:35;;;;;;;44.85;15.00;;;3.50;94.40;;;;;;5070004;28;20174;-72
2022/12/18 09:50:16;;;;;;;41.08;14.35;;;3.80;91.00;;;;;;5080213;28;20119;-71
2022/12/18 09:52:47;;;;;;;40.33;18.42;;;6.80;84.30;;;;;;5067702;28;20521;-73
2022/12/18 09:55:18;;;;;;;36.22;14.70;;;11.30;81.70;;;;;;5082174;28;20070;-72
2022/12/18 09:58:02;;;;;;;31.48;13.27;;;14.20;64.60;;;;;;5066466;28;20073;-73
2022/12/18 10:00:28;;;;;;;28.15;15.07;;;16.80;63.10;;;;;;5081641;28;20638;-73
2022/12/18 10:03:01;;;;;;;34.95;14.63;;;18.40;47.50;;;;;;5070023;28;20029;-73
2022/12/18 10:05:37;;;;;;;27.85;11.85;;;19.80;48.10;;;;;;5081435;28;20194;-73
2022/12/18 10:08:13;;;;;;;25.77;10.32;;;19.90;45.90;;;;;;5067757;28;20036;-74
2022/12/18 10:11:01;;;;;;;25.30;10.65;;;19.20;51.60;;;;;;5067042;28;20029;-73
2022/12/18 10:13:48;;;;;;;21.17;10.73;;;18.10;48.70;;;;;;5058692;28;20013;-73
2022/12/18 10:16:15;;;;;;;24.00;10.20;;;;;;;;;;5073983;28;20707;-73
2022/12/18 10:19:34;;;;;;;17.60;9.40;;;16.80;55.90;;;;;;5071698;28;20023;-72
2022/12/18 10:22:33;;;;;;;19.27;10.20;;;17.10;52.40;;;;;;4973259;28;20033;-73
2022/12/18 10:25:05;;;;;;;19.27;10.13;;;17.40;48.90;;;;;;4983340;28;20113;-73
2022/12/18 10:27:31;;;;;;;24.15;10.07;;;;;;;;;;4985651;28;20064;-73
2022/12/18 10:29:57;;;;;;;22.40;9.95;;;18.90;45.10;;;;;;4985639;28;20066;-73
2022/12/18 10:32:26;;;;;;;23.08;9.75;;;19.90;43.90;;;;;;4985767;28;20048;-73
2022/12/18 10:34:54;;;;;;;23.90;11.35;;;20.40;47.60;;;;;;4985993;28;20134;-73
2022/12/18 10:37:22;;;;;;;25.00;11.15;;;21.30;45.20;;;;;;4985862;28;20035;-73
2022/12/18 10:40:15;;;;;;;29.77;11.40;;;21.70;38.90;;;;;;4985573;28;20027;-73
2022/12/18 10:42:42;;;;;;;26.77;12.13;;;21.40;49.90;;;;;;4984220;28;20061;-73
2022/12/18 10:45:12;;;;;;;30.13;11.02;;;21.60;39.10;;;;;;4985127;28;20755;-73
2022/12/18 10:47:46;;;;;;;22.65;11.77;;;22.10;39.30;;;;;;4985556;28;20042;-72
2022/12/18 10:50:29;;;;;;;24.67;12.05;;;22.50;38.80;;;;;;4984502;28;20030;-73
2022/12/18 10:53:00;;;;;;;27.65;12.98;;;23.00;37.60;;;;;;4973923;28;20154;-73
2022/12/18 10:55:33;;;;;;;27.23;12.15;;;23.40;41.60;;;;;;5006759;28;20551;-73
2022/12/18 10:58:27;;;;;;;31.50;15.10;;;23.40;36.50;;;;;;5086985;28;20039;-73
2022/12/18 11:01:12;;;;;;;22.33;11.88;;;24.00;44.90;;;;;;5066224;28;20028;-73
2022/12/18 11:03:44;;;;;;;27.83;12.88;;;23.80;34.60;;;;;;5082153;28;20088;-73
2022/12/18 11:06:17;;;;;;;20.55;10.68;;;23.70;42.70;;;;;;5069337;28;20021;-73
2022/12/18 11:08:59;;;;;;;19.42;10.77;;;24.10;35.00;;;;;;5074618;28;20025;-73
2022/12/18 11:11:25;;;;;;;24.83;12.70;;;25.10;45.30;;;;;;5065899;28;20020;-73
2022/12/18 11:14:06;;;;;;;25.98;12.25;;;25.10;44.60;;;;;;5082207;28;20031;-72
2022/12/18 11:16:45;;;;;;;20.27;11.75;;;24.70;33.70;;;;;;5075008;28;20055;-73
2022/12/18 11:19:35;;;;;;;20.20;10.50;;;25.10;33.50;;;;;;5073847;28;20019;-73
2022/12/18 11:22:03;;;;;;;22.88;10.75;;;25.00;43.50;;;;;;5057358;28;20030;-73
2022/12/18 11:24:34;;;;;;;17.73;10.10;;;24.90;43.10;;;;;;5064587;28;20079;-73
2022/12/18 11:27:03;;;;;;;18.05;9.52;;;24.80;32.40;;;;;;5067411;28;20024;-73
2022/12/18 11:29:37;;;;;;;21.80;10.95;;;24.50;32.30;;;;;;5067251;28;20024;-73
2022/12/18 11:32:14;;;;;;;22.00;10.80;;;24.20;43.20;;;;;;5066594;28;20371;-73
2022/12/18 11:34:45;;;;;;;20.40;11.43;;;24.20;32.20;;;;;;5066268;28;20052;-73
2022/12/18 11:37:13;;;;;;;21.17;11.35;;;24.00;43.70;;;;;;5061374;28;20025;-73
2022/12/18 11:40:01;;;;;;;27.15;13.20;;;23.40;32.40;;;;;;5067344;28;20107;-73
2022/12/18 11:42:44;;;;;;;39.08;20.38;;;22.30;42.50;;;;;;5065079;28;20067;-73
2022/12/18 11:45:15;;;;;;;24.50;12.20;;;22.00;33.70;;;;;;5062648;28;20142;-73
2022/12/18 11:48:00;;;;;;;21.23;10.43;;;22.00;45.70;;;;;;5079516;28;20039;-73
2022/12/18 11:50:42;;;;;;;23.05;10.15;;;20.70;35.00;;;;;;5076714;28;20028;-72
2022/12/18 11:53:11;;;;;;;20.95;11.27;;;19.70;36.10;;;;;;5066639;28;20032;-73
2022/12/18 11:55:48;;;;;;;28.42;14.45;;;18.50;37.10;;;;;;5081180;28;20017;-73
2022/12/18 11:58:17;;;;;;;;;;;18.50;37.50;;;;;;5057361;28;20020;-73
2022/12/18 12:00:55;;;;;;;31.55;13.93;;;16.60;52.50;;;;;;5078568;28;20388;-73
2022/12/18 12:03:35;;;;;;;25.50;12.77;;;15.70;41.10;;;;;;5063089;28;20028;-73
2022/12/18 12:06:14;;;;;;;30.38;11.80;;;15.30;42.80;;;;;;5065966;28;20031;-73
2022/12/18 12:08:40;;;;;;;28.15;12.75;;;;;;;;;;5073335;28;20032;-73
2022/12/18 12:11:33;;;;;;;24.63;10.80;;;14.40;44.30;;;;;;5078048;28;20643;-72
2022/12/18 12:14:20;;;;;;;25.52;10.43;;;14.00;49.10;;;;;;5065845;28;20535;-73
2022/12/18 12:16:54;;;;;;;;;;;14.10;45.30;;;;;;5074440;28;20020;-73
2022/12/18 12:19:41;;;;;;;24.40;11.82;;;13.20;48.00;;;;;;5077821;28;19904;-72
2022/12/18 12:22:35;;;;;;;16.35;8.20;;;13.40;46.70;;;;;;5058333;28;20047;-72
2022/12/18 12:25:19;;;;;;;19.85;9.13;;;13.30;48.60;;;;;;5069515;28;20091;-73
2022/12/18 12:27:54;;;;;;;15.32;8.77;;;13.20;47.40;;;;;;5071102;28;20040;-72
2022/12/18 12:30:56;;;;;;;12.68;6.30;;;13.20;53.20;;;;;;5074149;28;20020;-72
2022/12/18 12:33:42;;;;;;;12.32;6.50;;;12.50;48.10;;;;;;5065626;28;20452;-72
2022/12/18 12:36:30;;;;;;;17.52;7.95;;;12.30;49.40;;;;;;5068601;28;20023;-73
2022/12/18 12:39:01;;;;;;;13.40;6.22;;;12.10;49.90;;;;;;5073754;28;20021;-73
2022/12/18 12:44:22;;;;;;;14.23;6.63;;;12.20;65.90;;;;;;5068764;28;20085;-72
2022/12/18 12:46:49;;;;;;;18.35;7.93;;;11.90;51.90;;;;;;5077806;28;20074;-72
2022/12/18 12:49:19;;;;;;;18.02;6.75;;;11.90;53.60;;;;;;5074492;28;20020;-72
2022/12/18 12:51:56;;;;;;;20.33;7.40;;;12.20;51.80;;;;;;5089944;28;20032;-72
2022/12/18 12:54:25;;;;;;;20.98;7.53;;;11.80;51.90;;;;;;5071764;28;20086;-72
2022/12/18 12:57:09;;;;;;;17.88;6.95;;;11.70;52.60;;;;;;5069474;28;20028;-72
2022/12/18 12:59:40;;;;;;;10.65;6.15;;;11.40;68.20;;;;;;5069105;28;20025;-72
2022/12/18 13:02:06;;;;;;;22.67;7.85;;;;;;;;;;5086104;28;20047;-72
2022/12/18 13:04:40;;;;;;;16.83;7.75;;;11.30;54.00;;;;;;5071308;28;20526;-72
2022/12/18 13:07:29;;;;;;;18.27;7.82;;;11.40;54.00;;;;;;5069154;28;20028;-73
2022/12/18 13:10:39;;;;;;;19.10;7.80;;;11.20;54.50;;;;;;5065459;28;20051;-72
2022/12/18 13:13:11;;;;;;;18.27;7.47;;;10.70;61.30;;;;;;4986133;28;20088;-72
2022/12/18 13:15:46;;;;;;;13.05;6.53;;;10.90;55.30;;;;;;4975832;28;20585;-73
2022/12/18 13:18:12;;;;;;;19.30;7.53;;;;;;;;;;4986420;28;20100;-72
2022/12/18 13:20:40;;;;;;;22.40;8.70;;;10.80;55.90;;;;;;4987798;28;20036;-72
2022/12/18 13:23:23;;;;;;;17.77;7.38;;;10.90;56.20;;;;;;4987403;28;20053;-72
2022/12/18 13:26:19;;;;;;;18.77;7.63;;;10.80;56.80;;;;;;4986292;28;20023;-72
2022/12/18 13:28:45;;;;;;;12.88;6.07;;;10.80;66.70;;;;;;4985375;28;20129;-72
2022/12/18 13:31:12;;;;;;;16.55;7.05;;;10.70;73.40;;;;;;4983628;28;20033;-72
2022/12/18 13:33:39;;;;;;;18.30;7.72;;;8.80;57.00;;;;;;4985926;28;20035;-72
2022/12/18 13:36:14;;;;;;;17.92;8.15;;;10.20;58.10;;;;;;4985587;28;20431;-72
2022/12/18 13:38:41;;;;;;;14.23;6.47;;;10.40;70.20;;;;;;4985810;28;20049;-72
2022/12/18 13:41:24;;;;;;;15.10;7.55;;;10.40;58.90;;;;;;4987591;28;20026;-72
2022/12/18 13:43:57;;;;;;;18.17;6.70;;;10.30;59.00;;;;;;5027825;28;20044;-72
2022/12/18 13:46:42;;;;;;;15.27;6.28;;;10.20;59.40;;;;;;5066332;28;20498;-72